sensor_id;sensor_type;location;lat;lon;timestamp;temperature;humidity
2024;DHT22;1016;48.770;9.154;2022-11-14T00:01:59;8.60;99.90
2024;DHT22;1016;48.770;9.154;2022-11-14T00:04:24;8.50;99.90
2024;DHT22;1016;48.770;9.154;2022-11-14T00:06:49;8.50;99.90
2024;DHT22;1016;48.770;9.154;2022-11-14T00:09:15;8.50;99.90
2024;DHT22;1016;48.770;9.154;2022-11-14T00:11:40;8.40;99.90
2024;DHT22;1016;48.770;9.154;2022-11-14T00:14:06;8.40;99.90
2024;DHT22;1016;48.770;9.154;2022-11-14T00:16:31;8.40;99.90
2024;DHT22;1016;48.770;9.154;2022-11-14T00:18:57;8.50;99.90
2024;DHT22;1016;48.770;9.154;2022-11-14T00:21:22;8.50;99.90
2024;DHT22;1016;48.770;9.154;2022-11-14T00:23:48;8.50;99.90
2024;DHT22;1016;48.770;9.154;2022-11-14T00:26:13;8.50;99.90
2024;DHT22;1016;48.770;9.154;2022-11-14T00:28:39;8.50;99.90
2024;DHT22;1016;48.770;9.154;2022-11-14T00:31:05;8.50;99.90
2024;DHT22;1016;48.770;9.154;2022-11-14T00:33:30;8.40;99.90
2024;DHT22;1016;48.770;9.154;2022-11-14T00:35:56;8.40;99.90
2024;DHT22;1016;48.770;9.154;2022-11-14T00:38:22;8.50;99.90
2024;DHT22;1016;48.770;9.154;2022-11-14T00:40:48;8.50;99.90
2024;DHT22;1016;48.770;9.154;2022-11-14T00:43:13;8.50;99.90
2024;DHT22;1016;48.770;9.154;2022-11-14T00:45:41;8.50;99.90
2024;DHT22;1016;48.770;9.154;2022-11-14T00:48:06;8.50;99.90
2024;DHT22;1016;48.770;9.154;2022-11-14T00:50:32;8.50;99.90
2024;DHT22;1016;48.770;9.154;2022-11-14T00:52:57;8.40;99.90
2024;DHT22;1016;48.770;9.154;2022-11-14T00:55:23;8.50;99.90
2024;DHT22;1016;48.770;9.154;2022-11-14T00:57:48;8.40;99.90
2024;DHT22;1016;48.770;9.154;2022-11-14T01:00:14;8.40;99.90
2024;DHT22;1016;48.770;9.154;2022-11-14T01:02:39;8.40;99.90
2024;DHT22;1016;48.770;9.154;2022-11-14T01:05:05;8.30;99.90
2024;DHT22;1016;48.770;9.154;2022-11-14T01:07:31;8.30;99.90
2024;DHT22;1016;48.770;9.154;2022-11-14T01:09:56;8.30;99.90
2024;DHT22;1016;48.770;9.154;2022-11-14T01:12:22;8.30;99.90
2024;DHT22;1016;48.770;9.154;2022-11-14T01:14:47;8.30;99.90
2024;DHT22;1016;48.770;9.154;2022-11-14T01:17:13;8.30;99.90
2024;DHT22;1016;48.770;9.154;2022-11-14T01:19:39;8.30;99.90
2024;DHT22;1016;48.770;9.154;2022-11-14T01:22:04;8.30;99.90
2024;DHT22;1016;48.770;9.154;2022-11-14T01:24:31;8.30;99.90
2024;DHT22;1016;48.770;9.154;2022-11-14T01:26:58;8.30;99.90
2024;DHT22;1016;48.770;9.154;2022-11-14T01:29:23;8.30;99.90
2024;DHT22;1016;48.770;9.154;2022-11-14T01:31:49;8.30;99.90
2024;DHT22;1016;48.770;9.154;2022-11-14T01:34:14;8.20;99.90
2024;DHT22;1016;48.770;9.154;2022-11-14T01:36:40;8.20;99.90
2024;DHT22;1016;48.770;9.154;2022-11-14T01:39:05;8.20;99.90
2024;DHT22;1016;48.770;9.154;2022-11-14T01:41:31;8.30;99.90
2024;DHT22;1016;48.770;9.154;2022-11-14T01:43:56;8.30;99.90
2024;DHT22;1016;48.770;9.154;2022-11-14T01:46:30;8.30;99.90
2024;DHT22;1016;48.770;9.154;2022-11-14T01:49:14;8.40;99.90
2024;DHT22;1016;48.770;9.154;2022-11-14T01:51:56;8.40;99.90
2024;DHT22;1016;48.770;9.154;2022-11-14T01:54:36;8.40;99.90
2024;DHT22;1016;48.770;9.154;2022-11-14T01:57:04;8.40;99.90
2024;DHT22;1016;48.770;9.154;2022-11-14T01:59:33;8.40;99.90
2024;DHT22;1016;48.770;9.154;2022-11-14T02:02:04;8.50;99.90
2024;DHT22;1016;48.770;9.154;2022-11-14T02:04:34;8.60;99.90
2024;DHT22;1016;48.770;9.154;2022-11-14T02:07:02;8.60;99.90
2024;DHT22;1016;48.770;9.154;2022-11-14T02:09:33;8.70;99.90
2024;DHT22;1016;48.770;9.154;2022-11-14T02:11:59;8.70;99.90
2024;DHT22;1016;48.770;9.154;2022-11-14T02:14:27;8.80;99.90
2024;DHT22;1016;48.770;9.154;2022-11-14T02:16:53;8.90;99.90
2024;DHT22;1016;48.770;9.154;2022-11-14T02:19:19;8.90;99.90
2024;DHT22;1016;48.770;9.154;2022-11-14T02:21:44;9.00;99.90
2024;DHT22;1016;48.770;9.154;2022-11-14T02:24:11;9.00;99.90
2024;DHT22;1016;48.770;9.154;2022-11-14T02:26:38;9.10;99.90
2024;DHT22;1016;48.770;9.154;2022-11-14T02:29:07;9.10;99.90
2024;DHT22;1016;48.770;9.154;2022-11-14T02:31:33;9.10;99.90
2024;DHT22;1016;48.770;9.154;2022-11-14T02:33:59;9.10;99.90
2024;DHT22;1016;48.770;9.154;2022-11-14T02:36:24;9.20;99.90
2024;DHT22;1016;48.770;9.154;2022-11-14T02:38:50;9.20;99.90
2024;DHT22;1016;48.770;9.154;2022-11-14T02:41:16;9.20;99.90
2024;DHT22;1016;48.770;9.154;2022-11-14T02:43:41;9.20;99.90
2024;DHT22;1016;48.770;9.154;2022-11-14T02:46:07;9.20;99.90
2024;DHT22;1016;48.770;9.154;2022-11-14T02:48:32;9.20;99.90
2024;DHT22;1016;48.770;9.154;2022-11-14T02:50:58;9.20;99.90
2024;DHT22;1016;48.770;9.154;2022-11-14T02:53:23;9.20;99.90
2024;DHT22;1016;48.770;9.154;2022-11-14T02:55:49;9.20;99.90
2024;DHT22;1016;48.770;9.154;2022-11-14T02:58:14;9.20;99.90
2024;DHT22;1016;48.770;9.154;2022-11-14T03:00:40;9.20;99.90
2024;DHT22;1016;48.770;9.154;2022-11-14T03:03:05;9.00;99.90
2024;DHT22;1016;48.770;9.154;2022-11-14T03:05:31;9.00;99.90
2024;DHT22;1016;48.770;9.154;2022-11-14T03:07:56;9.10;99.90
2024;DHT22;1016;48.770;9.154;2022-11-14T03:10:23;9.00;99.90
2024;DHT22;1016;48.770;9.154;2022-11-14T03:12:55;9.00;99.90
2024;DHT22;1016;48.770;9.154;2022-11-14T03:15:22;9.00;99.90
2024;DHT22;1016;48.770;9.154;2022-11-14T03:17:48;9.00;99.90
2024;DHT22;1016;48.770;9.154;2022-11-14T03:20:14;9.00;99.90
2024;DHT22;1016;48.770;9.154;2022-11-14T03:22:39;8.90;99.90
2024;DHT22;1016;48.770;9.154;2022-11-14T03:25:05;8.90;99.90
2024;DHT22;1016;48.770;9.154;2022-11-14T03:27:31;8.90;99.90
2024;DHT22;1016;48.770;9.154;2022-11-14T03:29:56;8.90;99.90
2024;DHT22;1016;48.770;9.154;2022-11-14T03:32:22;8.90;99.90
2024;DHT22;1016;48.770;9.154;2022-11-14T03:34:47;8.90;99.90
2024;DHT22;1016;48.770;9.154;2022-11-14T03:37:13;8.90;99.90
2024;DHT22;1016;48.770;9.154;2022-11-14T03:39:38;8.80;99.90
2024;DHT22;1016;48.770;9.154;2022-11-14T03:42:04;8.80;99.90
2024;DHT22;1016;48.770;9.154;2022-11-14T03:44:29;8.80;99.90
2024;DHT22;1016;48.770;9.154;2022-11-14T03:46:55;8.70;99.90
2024;DHT22;1016;48.770;9.154;2022-11-14T03:49:20;8.70;99.90
2024;DHT22;1016;48.770;9.154;2022-11-14T03:51:46;8.70;99.90
2024;DHT22;1016;48.770;9.154;2022-11-14T03:54:11;8.70;99.90
2024;DHT22;1016;48.770;9.154;2022-11-14T03:56:37;8.70;99.90
2024;DHT22;1016;48.770;9.154;2022-11-14T03:59:02;8.70;99.90
2024;DHT22;1016;48.770;9.154;2022-11-14T04:01:28;8.60;99.90
2024;DHT22;1016;48.770;9.154;2022-11-14T04:03:54;8.60;99.90
2024;DHT22;1016;48.770;9.154;2022-11-14T04:06:19;8.60;99.90
2024;DHT22;1016;48.770;9.154;2022-11-14T04:08:45;8.60;99.90
2024;DHT22;1016;48.770;9.154;2022-11-14T04:11:11;8.50;99.90
2024;DHT22;1016;48.770;9.154;2022-11-14T04:13:36;8.50;99.90
2024;DHT22;1016;48.770;9.154;2022-11-14T04:16:02;8.40;99.90
2024;DHT22;1016;48.770;9.154;2022-11-14T04:18:28;8.40;99.90
2024;DHT22;1016;48.770;9.154;2022-11-14T04:20:53;8.50;99.90
2024;DHT22;1016;48.770;9.154;2022-11-14T04:23:19;8.50;99.90
2024;DHT22;1016;48.770;9.154;2022-11-14T04:25:45;8.50;99.90
2024;DHT22;1016;48.770;9.154;2022-11-14T04:28:11;8.50;99.90
2024;DHT22;1016;48.770;9.154;2022-11-14T04:30:37;8.50;99.90
2024;DHT22;1016;48.770;9.154;2022-11-14T04:33:02;8.50;99.90
2024;DHT22;1016;48.770;9.154;2022-11-14T04:35:28;8.50;99.90
2024;DHT22;1016;48.770;9.154;2022-11-14T04:37:53;8.50;99.90
2024;DHT22;1016;48.770;9.154;2022-11-14T04:40:19;8.50;99.90
2024;DHT22;1016;48.770;9.154;2022-11-14T04:42:44;8.60;99.90
2024;DHT22;1016;48.770;9.154;2022-11-14T04:45:10;8.70;99.90
2024;DHT22;1016;48.770;9.154;2022-11-14T04:47:36;8.60;99.90
2024;DHT22;1016;48.770;9.154;2022-11-14T04:50:02;8.70;99.90
2024;DHT22;1016;48.770;9.154;2022-11-14T04:52:27;8.60;99.90
2024;DHT22;1016;48.770;9.154;2022-11-14T04:54:53;8.60;99.90
2024;DHT22;1016;48.770;9.154;2022-11-14T04:57:18;8.60;99.90
2024;DHT22;1016;48.770;9.154;2022-11-14T04:59:44;8.70;99.90
2024;DHT22;1016;48.770;9.154;2022-11-14T05:02:09;8.70;99.90
2024;DHT22;1016;48.770;9.154;2022-11-14T05:04:35;8.60;99.90
2024;DHT22;1016;48.770;9.154;2022-11-14T05:07:00;8.50;99.90
2024;DHT22;1016;48.770;9.154;2022-11-14T05:09:26;8.50;99.90
2024;DHT22;1016;48.770;9.154;2022-11-14T05:11:51;8.40;99.90
2024;DHT22;1016;48.770;9.154;2022-11-14T05:14:17;8.40;99.90
2024;DHT22;1016;48.770;9.154;2022-11-14T05:16:43;8.40;99.90
2024;DHT22;1016;48.770;9.154;2022-11-14T05:19:08;8.40;99.90
2024;DHT22;1016;48.770;9.154;2022-11-14T05:21:33;8.40;99.90
2024;DHT22;1016;48.770;9.154;2022-11-14T05:23:59;8.50;99.90
2024;DHT22;1016;48.770;9.154;2022-11-14T05:26:25;8.40;99.90
2024;DHT22;1016;48.770;9.154;2022-11-14T05:28:50;8.40;99.90
2024;DHT22;1016;48.770;9.154;2022-11-14T05:31:16;8.50;99.90
2024;DHT22;1016;48.770;9.154;2022-11-14T05:33:45;8.50;99.90
2024;DHT22;1016;48.770;9.154;2022-11-14T05:36:15;8.60;99.90
2024;DHT22;1016;48.770;9.154;2022-11-14T05:38:42;8.60;99.90
2024;DHT22;1016;48.770;9.154;2022-11-14T05:41:10;8.60;99.90
2024;DHT22;1016;48.770;9.154;2022-11-14T05:43:36;8.70;99.90
2024;DHT22;1016;48.770;9.154;2022-11-14T05:46:03;8.70;99.90
2024;DHT22;1016;48.770;9.154;2022-11-14T05:48:30;8.70;99.90
2024;DHT22;1016;48.770;9.154;2022-11-14T05:50:57;8.70;99.90
2024;DHT22;1016;48.770;9.154;2022-11-14T05:53:23;8.70;99.90
2024;DHT22;1016;48.770;9.154;2022-11-14T05:55:48;8.80;99.90
2024;DHT22;1016;48.770;9.154;2022-11-14T05:58:14;8.80;99.90
2024;DHT22;1016;48.770;9.154;2022-11-14T06:00:39;8.70;99.90
2024;DHT22;1016;48.770;9.154;2022-11-14T06:03:05;8.70;99.90
2024;DHT22;1016;48.770;9.154;2022-11-14T06:05:31;8.80;99.90
2024;DHT22;1016;48.770;9.154;2022-11-14T06:07:58;8.80;99.90
2024;DHT22;1016;48.770;9.154;2022-11-14T06:10:24;8.80;99.90
2024;DHT22;1016;48.770;9.154;2022-11-14T06:12:50;8.80;99.90
2024;DHT22;1016;48.770;9.154;2022-11-14T06:15:16;8.90;99.90
2024;DHT22;1016;48.770;9.154;2022-11-14T06:17:41;8.90;99.90
2024;DHT22;1016;48.770;9.154;2022-11-14T06:20:07;8.90;99.90
2024;DHT22;1016;48.770;9.154;2022-11-14T06:22:33;8.90;99.90
2024;DHT22;1016;48.770;9.154;2022-11-14T06:25:03;9.00;99.90
2024;DHT22;1016;48.770;9.154;2022-11-14T06:27:28;9.00;99.90
2024;DHT22;1016;48.770;9.154;2022-11-14T06:29:54;9.00;99.90
2024;DHT22;1016;48.770;9.154;2022-11-14T06:32:19;9.00;99.90
2024;DHT22;1016;48.770;9.154;2022-11-14T06:34:45;8.90;99.90
2024;DHT22;1016;48.770;9.154;2022-11-14T06:37:10;9.00;99.90
2024;DHT22;1016;48.770;9.154;2022-11-14T06:39:36;9.10;99.90
2024;DHT22;1016;48.770;9.154;2022-11-14T06:42:01;9.00;99.90
2024;DHT22;1016;48.770;9.154;2022-11-14T06:44:27;9.10;99.90
2024;DHT22;1016;48.770;9.154;2022-11-14T06:46:52;9.20;99.90
2024;DHT22;1016;48.770;9.154;2022-11-14T06:49:18;9.20;99.90
2024;DHT22;1016;48.770;9.154;2022-11-14T06:51:43;9.20;99.90
2024;DHT22;1016;48.770;9.154;2022-11-14T06:54:12;9.20;99.90
2024;DHT22;1016;48.770;9.154;2022-11-14T06:56:38;9.30;99.90
2024;DHT22;1016;48.770;9.154;2022-11-14T06:59:03;9.30;99.90
2024;DHT22;1016;48.770;9.154;2022-11-14T07:01:29;9.30;99.90
2024;DHT22;1016;48.770;9.154;2022-11-14T07:03:54;9.30;99.90
2024;DHT22;1016;48.770;9.154;2022-11-14T07:06:24;9.20;99.90
2024;DHT22;1016;48.770;9.154;2022-11-14T07:08:51;9.20;99.90
2024;DHT22;1016;48.770;9.154;2022-11-14T07:11:19;9.30;99.90
2024;DHT22;1016;48.770;9.154;2022-11-14T07:13:49;9.30;99.90
2024;DHT22;1016;48.770;9.154;2022-11-14T07:16:15;9.30;99.90
2024;DHT22;1016;48.770;9.154;2022-11-14T07:18:41;9.30;99.90
2024;DHT22;1016;48.770;9.154;2022-11-14T07:21:07;9.40;99.90
2024;DHT22;1016;48.770;9.154;2022-11-14T07:23:33;9.40;99.90
2024;DHT22;1016;48.770;9.154;2022-11-14T07:26:03;9.40;99.90
2024;DHT22;1016;48.770;9.154;2022-11-14T07:28:32;9.40;99.90
2024;DHT22;1016;48.770;9.154;2022-11-14T07:31:01;9.40;99.90
2024;DHT22;1016;48.770;9.154;2022-11-14T07:33:26;9.40;99.90
2024;DHT22;1016;48.770;9.154;2022-11-14T07:35:52;9.40;99.90
2024;DHT22;1016;48.770;9.154;2022-11-14T07:38:17;9.40;99.90
2024;DHT22;1016;48.770;9.154;2022-11-14T07:40:52;9.50;99.90
2024;DHT22;1016;48.770;9.154;2022-11-14T07:43:17;9.40;99.90
2024;DHT22;1016;48.770;9.154;2022-11-14T07:45:43;9.40;99.90
2024;DHT22;1016;48.770;9.154;2022-11-14T07:48:08;9.40;99.90
2024;DHT22;1016;48.770;9.154;2022-11-14T07:50:34;9.40;99.90
2024;DHT22;1016;48.770;9.154;2022-11-14T07:52:59;9.40;99.90
2024;DHT22;1016;48.770;9.154;2022-11-14T07:55:25;9.40;99.90
2024;DHT22;1016;48.770;9.154;2022-11-14T07:57:54;9.60;99.90
2024;DHT22;1016;48.770;9.154;2022-11-14T08:00:23;9.60;99.90
2024;DHT22;1016;48.770;9.154;2022-11-14T08:02:48;9.60;99.90
2024;DHT22;1016;48.770;9.154;2022-11-14T08:05:14;9.70;99.90
2024;DHT22;1016;48.770;9.154;2022-11-14T08:07:39;9.80;99.90
2024;DHT22;1016;48.770;9.154;2022-11-14T08:10:05;9.80;99.90
2024;DHT22;1016;48.770;9.154;2022-11-14T08:12:31;9.90;99.90
2024;DHT22;1016;48.770;9.154;2022-11-14T08:14:56;10.00;99.90
2024;DHT22;1016;48.770;9.154;2022-11-14T08:17:22;10.00;99.90
2024;DHT22;1016;48.770;9.154;2022-11-14T08:19:48;10.10;99.90
2024;DHT22;1016;48.770;9.154;2022-11-14T08:22:14;10.10;99.90
2024;DHT22;1016;48.770;9.154;2022-11-14T08:24:39;10.10;99.90
2024;DHT22;1016;48.770;9.154;2022-11-14T08:27:05;10.20;99.90
2024;DHT22;1016;48.770;9.154;2022-11-14T08:29:30;10.20;99.90
2024;DHT22;1016;48.770;9.154;2022-11-14T08:31:56;10.30;99.90
2024;DHT22;1016;48.770;9.154;2022-11-14T08:34:21;10.40;99.90
2024;DHT22;1016;48.770;9.154;2022-11-14T08:36:48;10.50;99.90
2024;DHT22;1016;48.770;9.154;2022-11-14T08:39:13;10.50;99.90
2024;DHT22;1016;48.770;9.154;2022-11-14T08:41:39;10.70;99.90
2024;DHT22;1016;48.770;9.154;2022-11-14T08:44:04;10.50;99.90
2024;DHT22;1016;48.770;9.154;2022-11-14T08:46:30;10.50;99.90
2024;DHT22;1016;48.770;9.154;2022-11-14T08:48:55;10.60;99.90
2024;DHT22;1016;48.770;9.154;2022-11-14T08:51:21;10.70;99.90
2024;DHT22;1016;48.770;9.154;2022-11-14T08:53:47;10.70;99.90
2024;DHT22;1016;48.770;9.154;2022-11-14T08:56:12;10.70;99.90
2024;DHT22;1016;48.770;9.154;2022-11-14T08:58:37;10.70;99.90
2024;DHT22;1016;48.770;9.154;2022-11-14T09:01:05;10.80;99.90
2024;DHT22;1016;48.770;9.154;2022-11-14T09:03:32;10.90;99.90
2024;DHT22;1016;48.770;9.154;2022-11-14T09:05:58;10.90;99.90
2024;DHT22;1016;48.770;9.154;2022-11-14T09:08:23;10.90;99.90
2024;DHT22;1016;48.770;9.154;2022-11-14T09:10:49;10.90;99.90
2024;DHT22;1016;48.770;9.154;2022-11-14T09:13:15;10.90;99.90
2024;DHT22;1016;48.770;9.154;2022-11-14T09:15:41;10.90;99.90
2024;DHT22;1016;48.770;9.154;2022-11-14T09:18:08;11.10;99.90
2024;DHT22;1016;48.770;9.154;2022-11-14T09:20:33;11.30;99.90
2024;DHT22;1016;48.770;9.154;2022-11-14T09:23:00;11.20;99.90
2024;DHT22;1016;48.770;9.154;2022-11-14T09:25:26;11.20;99.90
2024;DHT22;1016;48.770;9.154;2022-11-14T09:27:52;11.20;99.90
2024;DHT22;1016;48.770;9.154;2022-11-14T09:30:17;11.30;99.90
2024;DHT22;1016;48.770;9.154;2022-11-14T09:32:43;11.30;99.90
2024;DHT22;1016;48.770;9.154;2022-11-14T09:35:09;11.40;99.90
2024;DHT22;1016;48.770;9.154;2022-11-14T09:37:34;11.50;99.90
2024;DHT22;1016;48.770;9.154;2022-11-14T09:40:00;11.50;99.90
2024;DHT22;1016;48.770;9.154;2022-11-14T09:42:34;11.60;99.90
2024;DHT22;1016;48.770;9.154;2022-11-14T09:45:03;11.60;99.90
2024;DHT22;1016;48.770;9.154;2022-11-14T09:47:37;11.50;99.90
2024;DHT22;1016;48.770;9.154;2022-11-14T09:52:52;11.70;99.90
2024;DHT22;1016;48.770;9.154;2022-11-14T09:55:27;11.80;99.90
2024;DHT22;1016;48.770;9.154;2022-11-14T09:57:53;11.80;99.90
2024;DHT22;1016;48.770;9.154;2022-11-14T10:00:24;11.90;99.90
2024;DHT22;1016;48.770;9.154;2022-11-14T10:08:13;12.00;99.90
2024;DHT22;1016;48.770;9.154;2022-11-14T10:16:17;12.20;99.90
2024;DHT22;1016;48.770;9.154;2022-11-14T10:18:56;12.30;99.90
2024;DHT22;1016;48.770;9.154;2022-11-14T10:24:40;12.30;99.90
2024;DHT22;1016;48.770;9.154;2022-11-14T10:27:17;12.40;99.90
2024;DHT22;1016;48.770;9.154;2022-11-14T10:35:11;12.60;99.90
2024;DHT22;1016;48.770;9.154;2022-11-14T10:38:02;12.60;99.90
2024;DHT22;1016;48.770;9.154;2022-11-14T10:40:49;12.60;99.90
2024;DHT22;1016;48.770;9.154;2022-11-14T10:43:17;12.70;99.90
2024;DHT22;1016;48.770;9.154;2022-11-14T10:46:01;12.80;99.90
2024;DHT22;1016;48.770;9.154;2022-11-14T10:48:31;12.90;99.90
2024;DHT22;1016;48.770;9.154;2022-11-14T10:51:00;12.80;99.90
2024;DHT22;1016;48.770;9.154;2022-11-14T10:55:56;12.80;99.90
2024;DHT22;1016;48.770;9.154;2022-11-14T10:58:22;12.80;99.90
2024;DHT22;1016;48.770;9.154;2022-11-14T11:00:48;12.90;99.90
2024;DHT22;1016;48.770;9.154;2022-11-14T11:03:14;12.90;99.90
2024;DHT22;1016;48.770;9.154;2022-11-14T11:05:49;12.90;99.90
2024;DHT22;1016;48.770;9.154;2022-11-14T11:08:21;13.00;99.90
2024;DHT22;1016;48.770;9.154;2022-11-14T11:11:11;13.00;99.90
2024;DHT22;1016;48.770;9.154;2022-11-14T11:13:57;13.10;99.90
2024;DHT22;1016;48.770;9.154;2022-11-14T11:16:26;13.20;99.90
2024;DHT22;1016;48.770;9.154;2022-11-14T11:18:52;13.20;99.90
2024;DHT22;1016;48.770;9.154;2022-11-14T11:21:20;13.30;99.90
2024;DHT22;1016;48.770;9.154;2022-11-14T11:23:56;13.30;99.90
2024;DHT22;1016;48.770;9.154;2022-11-14T11:26:27;13.40;99.90
2024;DHT22;1016;48.770;9.154;2022-11-14T11:31:54;13.40;99.90
2024;DHT22;1016;48.770;9.154;2022-11-14T11:34:24;13.40;99.90
2024;DHT22;1016;48.770;9.154;2022-11-14T11:37:08;13.50;99.90
2024;DHT22;1016;48.770;9.154;2022-11-14T11:39:42;13.50;99.90
2024;DHT22;1016;48.770;9.154;2022-11-14T11:42:13;13.50;99.90
2024;DHT22;1016;48.770;9.154;2022-11-14T11:44:45;13.50;99.90
2024;DHT22;1016;48.770;9.154;2022-11-14T11:47:15;13.50;99.90
2024;DHT22;1016;48.770;9.154;2022-11-14T11:49:50;13.40;99.90
2024;DHT22;1016;48.770;9.154;2022-11-14T11:52:41;13.40;99.90
2024;DHT22;1016;48.770;9.154;2022-11-14T11:55:31;13.50;99.90
2024;DHT22;1016;48.770;9.154;2022-11-14T12:00:27;13.50;99.90
2024;DHT22;1016;48.770;9.154;2022-11-14T12:02:53;13.50;99.90
2024;DHT22;1016;48.770;9.154;2022-11-14T12:08:00;13.50;99.90
2024;DHT22;1016;48.770;9.154;2022-11-14T12:10:31;13.40;99.90
2024;DHT22;1016;48.770;9.154;2022-11-14T12:16:14;13.50;99.90
2024;DHT22;1016;48.770;9.154;2022-11-14T12:18:50;13.50;99.90
2024;DHT22;1016;48.770;9.154;2022-11-14T12:32:11;13.70;99.90
2024;DHT22;1016;48.770;9.154;2022-11-14T12:34:40;13.70;99.90
2024;DHT22;1016;48.770;9.154;2022-11-14T12:37:08;13.90;99.90
2024;DHT22;1016;48.770;9.154;2022-11-14T12:39:35;14.00;99.90
2024;DHT22;1016;48.770;9.154;2022-11-14T12:42:06;14.10;99.90
2024;DHT22;1016;48.770;9.154;2022-11-14T12:44:37;14.20;99.90
2024;DHT22;1016;48.770;9.154;2022-11-14T12:49:56;14.10;99.90
2024;DHT22;1016;48.770;9.154;2022-11-14T12:52:51;14.00;99.90
2024;DHT22;1016;48.770;9.154;2022-11-14T13:06:23;13.70;99.90
2024;DHT22;1016;48.770;9.154;2022-11-14T13:14:21;13.70;99.90
2024;DHT22;1016;48.770;9.154;2022-11-14T13:17:25;13.80;99.90
2024;DHT22;1016;48.770;9.154;2022-11-14T13:20:31;13.70;99.90
2024;DHT22;1016;48.770;9.154;2022-11-14T13:33:45;13.50;99.90
2024;DHT22;1016;48.770;9.154;2022-11-14T13:36:44;13.40;99.90
2024;DHT22;1016;48.770;9.154;2022-11-14T13:39:30;13.40;99.90
2024;DHT22;1016;48.770;9.154;2022-11-14T13:42:30;13.40;99.90
2024;DHT22;1016;48.770;9.154;2022-11-14T13:45:16;13.40;99.90
2024;DHT22;1016;48.770;9.154;2022-11-14T13:50:35;13.40;99.90
2024;DHT22;1016;48.770;9.154;2022-11-14T13:53:11;13.30;99.90
2024;DHT22;1016;48.770;9.154;2022-11-14T13:58:47;13.20;99.90
2024;DHT22;1016;48.770;9.154;2022-11-14T14:01:28;13.20;99.90
2024;DHT22;1016;48.770;9.154;2022-11-14T14:04:16;13.10;99.90
2024;DHT22;1016;48.770;9.154;2022-11-14T14:09:49;13.10;99.90
2024;DHT22;1016;48.770;9.154;2022-11-14T14:15:19;13.00;99.90
2024;DHT22;1016;48.770;9.154;2022-11-14T14:18:17;12.90;99.90
2024;DHT22;1016;48.770;9.154;2022-11-14T14:20:52;13.00;99.90
2024;DHT22;1016;48.770;9.154;2022-11-14T14:23:48;13.00;99.90
2024;DHT22;1016;48.770;9.154;2022-11-14T14:26:24;13.00;99.90
2024;DHT22;1016;48.770;9.154;2022-11-14T14:31:36;12.90;99.90
2024;DHT22;1016;48.770;9.154;2022-11-14T14:34:17;12.90;99.90
2024;DHT22;1016;48.770;9.154;2022-11-14T14:36:51;12.90;99.90
2024;DHT22;1016;48.770;9.154;2022-11-14T14:41:45;12.80;99.90
2024;DHT22;1016;48.770;9.154;2022-11-14T14:44:22;12.80;99.90
2024;DHT22;1016;48.770;9.154;2022-11-14T14:46:48;12.80;99.90
2024;DHT22;1016;48.770;9.154;2022-11-14T14:49:23;12.80;99.90
2024;DHT22;1016;48.770;9.154;2022-11-14T14:51:50;12.80;99.90
2024;DHT22;1016;48.770;9.154;2022-11-14T14:54:21;12.80;99.90
2024;DHT22;1016;48.770;9.154;2022-11-14T14:56:55;12.80;99.90
2024;DHT22;1016;48.770;9.154;2022-11-14T14:59:27;12.80;99.90
2024;DHT22;1016;48.770;9.154;2022-11-14T15:01:53;12.70;99.90
2024;DHT22;1016;48.770;9.154;2022-11-14T15:04:22;12.60;99.90
2024;DHT22;1016;48.770;9.154;2022-11-14T15:06:48;12.70;99.90
2024;DHT22;1016;48.770;9.154;2022-11-14T15:09:22;12.70;99.90
2024;DHT22;1016;48.770;9.154;2022-11-14T15:11:53;12.60;99.90
2024;DHT22;1016;48.770;9.154;2022-11-14T15:14:31;12.60;99.90
2024;DHT22;1016;48.770;9.154;2022-11-14T15:16:58;12.50;99.90
2024;DHT22;1016;48.770;9.154;2022-11-14T15:19:30;12.50;99.90
2024;DHT22;1016;48.770;9.154;2022-11-14T15:22:01;12.40;99.90
2024;DHT22;1016;48.770;9.154;2022-11-14T15:24:28;12.40;99.90
2024;DHT22;1016;48.770;9.154;2022-11-14T15:26:54;12.30;99.90
2024;DHT22;1016;48.770;9.154;2022-11-14T15:29:26;12.30;99.90
2024;DHT22;1016;48.770;9.154;2022-11-14T15:31:57;12.30;99.90
2024;DHT22;1016;48.770;9.154;2022-11-14T15:34:32;12.20;99.90
2024;DHT22;1016;48.770;9.154;2022-11-14T15:37:06;12.20;99.90
2024;DHT22;1016;48.770;9.154;2022-11-14T15:39:32;12.10;99.90
2024;DHT22;1016;48.770;9.154;2022-11-14T15:42:25;12.00;99.90
2024;DHT22;1016;48.770;9.154;2022-11-14T15:44:52;12.00;99.90
2024;DHT22;1016;48.770;9.154;2022-11-14T15:47:47;11.90;99.90
2024;DHT22;1016;48.770;9.154;2022-11-14T15:52:58;11.80;99.90
2024;DHT22;1016;48.770;9.154;2022-11-14T15:55:25;11.80;99.90
2024;DHT22;1016;48.770;9.154;2022-11-14T15:57:50;11.80;99.90
2024;DHT22;1016;48.770;9.154;2022-11-14T16:00:17;11.70;99.90
2024;DHT22;1016;48.770;9.154;2022-11-14T16:02:55;11.70;99.90
2024;DHT22;1016;48.770;9.154;2022-11-14T16:05:25;11.70;99.90
2024;DHT22;1016;48.770;9.154;2022-11-14T16:07:52;11.60;99.90
2024;DHT22;1016;48.770;9.154;2022-11-14T16:10:23;11.50;99.90
2024;DHT22;1016;48.770;9.154;2022-11-14T16:12:49;11.50;99.90
2024;DHT22;1016;48.770;9.154;2022-11-14T16:15:14;11.50;99.90
2024;DHT22;1016;48.770;9.154;2022-11-14T16:17:42;11.50;99.90
2024;DHT22;1016;48.770;9.154;2022-11-14T16:20:18;11.40;99.90
2024;DHT22;1016;48.770;9.154;2022-11-14T16:22:45;11.40;99.90
2024;DHT22;1016;48.770;9.154;2022-11-14T16:25:19;11.30;99.90
2024;DHT22;1016;48.770;9.154;2022-11-14T16:27:45;11.30;99.90
2024;DHT22;1016;48.770;9.154;2022-11-14T16:30:11;11.30;99.90
2024;DHT22;1016;48.770;9.154;2022-11-14T16:32:38;11.20;99.90
2024;DHT22;1016;48.770;9.154;2022-11-14T16:35:11;11.20;99.90
2024;DHT22;1016;48.770;9.154;2022-11-14T16:37:36;11.10;99.90
2024;DHT22;1016;48.770;9.154;2022-11-14T16:40:02;11.10;99.90
2024;DHT22;1016;48.770;9.154;2022-11-14T16:42:28;10.90;99.90
2024;DHT22;1016;48.770;9.154;2022-11-14T16:44:59;11.10;99.90
2024;DHT22;1016;48.770;9.154;2022-11-14T16:47:25;11.10;99.90
2024;DHT22;1016;48.770;9.154;2022-11-14T16:49:51;11.00;99.90
2024;DHT22;1016;48.770;9.154;2022-11-14T16:52:16;11.00;99.90
2024;DHT22;1016;48.770;9.154;2022-11-14T16:54:43;11.00;99.90
2024;DHT22;1016;48.770;9.154;2022-11-14T16:57:08;11.00;99.90
2024;DHT22;1016;48.770;9.154;2022-11-14T16:59:34;11.00;99.90
2024;DHT22;1016;48.770;9.154;2022-11-14T17:01:59;10.90;99.90
2024;DHT22;1016;48.770;9.154;2022-11-14T17:04:26;10.80;99.90
2024;DHT22;1016;48.770;9.154;2022-11-14T17:06:52;10.80;99.90
2024;DHT22;1016;48.770;9.154;2022-11-14T17:09:18;10.80;99.90
2024;DHT22;1016;48.770;9.154;2022-11-14T17:11:43;10.80;99.90
2024;DHT22;1016;48.770;9.154;2022-11-14T17:14:09;10.80;99.90
2024;DHT22;1016;48.770;9.154;2022-11-14T17:16:35;10.80;99.90
2024;DHT22;1016;48.770;9.154;2022-11-14T17:19:00;10.80;99.90
2024;DHT22;1016;48.770;9.154;2022-11-14T17:21:26;10.80;99.90
2024;DHT22;1016;48.770;9.154;2022-11-14T17:23:59;10.80;99.90
2024;DHT22;1016;48.770;9.154;2022-11-14T17:26:28;10.90;99.90
2024;DHT22;1016;48.770;9.154;2022-11-14T17:28:54;10.80;99.90
2024;DHT22;1016;48.770;9.154;2022-11-14T17:31:20;10.80;99.90
2024;DHT22;1016;48.770;9.154;2022-11-14T17:33:50;10.80;99.90
2024;DHT22;1016;48.770;9.154;2022-11-14T17:36:16;10.80;99.90
2024;DHT22;1016;48.770;9.154;2022-11-14T17:38:42;10.70;99.90
2024;DHT22;1016;48.770;9.154;2022-11-14T17:41:08;10.70;99.90
2024;DHT22;1016;48.770;9.154;2022-11-14T17:43:35;10.70;99.90
2024;DHT22;1016;48.770;9.154;2022-11-14T17:46:02;10.70;99.90
2024;DHT22;1016;48.770;9.154;2022-11-14T17:48:28;10.70;99.90
2024;DHT22;1016;48.770;9.154;2022-11-14T17:50:53;10.70;99.90
2024;DHT22;1016;48.770;9.154;2022-11-14T17:53:19;10.80;99.90
2024;DHT22;1016;48.770;9.154;2022-11-14T17:55:44;10.80;99.90